createdAt,value
2018-12-15T00:01:05.461Z,1.00
2018-12-15T00:03:31.624Z,0.90
2018-12-15T00:05:57.798Z,0.90
2018-12-15T00:08:23.974Z,0.80
2018-12-15T00:10:56.907Z,0.90
2018-12-15T00:13:23.075Z,0.90
2018-12-15T00:15:49.362Z,0.90
2018-12-15T00:18:15.480Z,0.90
2018-12-15T00:20:41.657Z,0.90
2018-12-15T00:23:07.781Z,0.90
2018-12-15T00:25:33.940Z,0.90
2018-12-15T00:28:00.098Z,0.80
2018-12-15T00:30:26.278Z,0.90
2018-12-15T00:32:52.423Z,0.90
2018-12-15T00:35:18.543Z,0.80
2018-12-15T00:37:44.689Z,0.90
2018-12-15T00:40:10.857Z,0.90
2018-12-15T00:42:37.190Z,0.90
2018-12-15T00:45:03.825Z,0.90
2018-12-15T00:47:29.991Z,0.80
2018-12-15T00:49:56.161Z,0.90
2018-12-15T00:52:22.403Z,0.80
2018-12-15T00:54:48.502Z,0.90
2018-12-15T00:57:14.711Z,0.80
2018-12-15T00:59:40.859Z,0.80
2018-12-15T01:02:07.008Z,0.80
2018-12-15T01:04:33.206Z,0.70
2018-12-15T01:06:59.332Z,0.70
2018-12-15T01:09:25.594Z,0.90
2018-12-15T01:11:51.952Z,0.90
2018-12-15T01:14:18.126Z,0.90
2018-12-15T01:16:44.322Z,0.80
2018-12-15T01:19:10.479Z,0.80
2018-12-15T01:21:36.656Z,0.80
2018-12-15T01:24:09.831Z,0.80
2018-12-15T01:26:35.988Z,0.90
2018-12-15T01:29:02.094Z,0.90
2018-12-15T01:31:28.264Z,0.80
2018-12-15T01:33:54.584Z,0.80
2018-12-15T01:36:20.760Z,0.70
2018-12-15T01:38:46.934Z,0.80
2018-12-15T01:41:13.213Z,0.80
2018-12-15T01:43:39.386Z,0.80
2018-12-15T01:46:05.766Z,0.80
2018-12-15T01:48:32.122Z,0.90
2018-12-15T01:50:58.550Z,0.90
2018-12-15T01:53:24.803Z,0.90
2018-12-15T01:55:50.954Z,0.90
2018-12-15T01:58:17.142Z,0.90
2018-12-15T02:00:43.308Z,0.80
2018-12-15T02:03:09.496Z,0.80
2018-12-15T02:05:35.904Z,0.80
2018-12-15T02:08:02.031Z,0.80
2018-12-15T02:10:28.216Z,0.80
2018-12-15T02:12:54.350Z,0.80
2018-12-15T02:15:20.509Z,0.80
2018-12-15T02:17:46.608Z,0.70
2018-12-15T02:20:12.740Z,0.80
2018-12-15T02:22:38.891Z,0.80
2018-12-15T02:25:05.342Z,0.70
2018-12-15T02:27:31.547Z,0.80
2018-12-15T02:29:57.677Z,0.70
2018-12-15T02:32:23.829Z,0.80
2018-12-15T02:34:49.991Z,0.80
2018-12-15T02:37:16.181Z,0.80
2018-12-15T02:39:42.292Z,0.80
2018-12-15T02:42:08.439Z,0.80
2018-12-15T02:44:34.609Z,0.80
2018-12-15T02:47:00.791Z,0.70
2018-12-15T02:49:26.957Z,0.80
2018-12-15T02:51:53.220Z,0.80
2018-12-15T02:54:19.390Z,0.90
2018-12-15T02:56:45.558Z,0.80
2018-12-15T02:59:11.711Z,0.80
2018-12-15T03:01:37.852Z,0.70
2018-12-15T03:04:03.957Z,0.70
2018-12-15T03:06:37.052Z,0.70
2018-12-15T03:09:05.069Z,0.70
2018-12-15T03:11:31.232Z,0.70
2018-12-15T03:13:57.348Z,0.80
2018-12-15T03:16:23.513Z,0.70
2018-12-15T03:18:49.640Z,0.70
2018-12-15T03:21:15.779Z,0.70
2018-12-15T03:23:41.993Z,0.70
2018-12-15T03:26:08.099Z,0.80
2018-12-15T03:28:34.203Z,0.80
2018-12-15T03:31:00.353Z,0.90
2018-12-15T03:33:33.322Z,0.90
2018-12-15T03:35:59.515Z,0.80
2018-12-15T03:38:25.609Z,0.80
2018-12-15T03:40:51.761Z,0.70
2018-12-15T03:43:17.978Z,0.80
2018-12-15T03:45:44.147Z,0.80
2018-12-15T03:48:17.143Z,0.80
2018-12-15T03:50:43.257Z,0.80
2018-12-15T03:53:09.424Z,0.70
2018-12-15T03:55:35.547Z,0.70
2018-12-15T03:58:01.775Z,0.70
2018-12-15T04:00:27.992Z,0.80
2018-12-15T04:02:54.199Z,0.70
2018-12-15T04:05:20.352Z,0.70
2018-12-15T04:07:46.533Z,0.70
2018-12-15T04:10:19.578Z,0.70
2018-12-15T04:12:45.799Z,0.70
2018-12-15T04:15:12.013Z,0.70
2018-12-15T04:17:38.187Z,0.70
2018-12-15T04:20:04.548Z,0.70
2018-12-15T04:22:30.705Z,0.70
2018-12-15T04:24:56.905Z,0.70
2018-12-15T04:27:23.026Z,0.70
2018-12-15T04:29:49.370Z,0.70
2018-12-15T04:32:15.572Z,0.70
2018-12-15T04:34:41.715Z,0.70
2018-12-15T04:37:08.014Z,0.70
2018-12-15T04:39:34.173Z,0.60
2018-12-15T04:42:00.311Z,0.60
2018-12-15T04:44:26.435Z,0.70
2018-12-15T04:46:52.961Z,0.70
2018-12-15T04:49:19.115Z,0.70
2018-12-15T04:51:45.273Z,0.70
2018-12-15T04:54:11.409Z,0.60
2018-12-15T04:56:37.525Z,0.70
2018-12-15T04:59:03.713Z,0.70
2018-12-15T05:01:29.913Z,0.70
2018-12-15T05:03:56.080Z,0.60
2018-12-15T05:06:22.266Z,0.60
2018-12-15T05:08:48.398Z,0.70
2018-12-15T05:11:14.520Z,0.70
2018-12-15T05:13:40.668Z,0.60
2018-12-15T05:16:06.843Z,0.60
2018-12-15T05:18:32.959Z,0.60
2018-12-15T05:20:59.082Z,0.60
2018-12-15T05:23:25.256Z,0.60
2018-12-15T05:25:51.380Z,0.60
2018-12-15T05:28:17.746Z,0.60
2018-12-15T05:30:43.860Z,0.60
2018-12-15T05:33:10.042Z,0.70
2018-12-15T05:35:36.283Z,0.70
2018-12-15T05:38:02.439Z,0.60
2018-12-15T05:40:28.616Z,0.50
2018-12-15T05:42:54.790Z,0.60
2018-12-15T05:45:20.968Z,0.60
2018-12-15T05:47:47.042Z,0.60
2018-12-15T05:50:13.197Z,0.50
2018-12-15T05:52:46.303Z,0.50
2018-12-15T05:55:12.435Z,0.50
2018-12-15T05:57:38.540Z,0.60
2018-12-15T06:00:07.627Z,0.70
2018-12-15T06:02:34.133Z,0.70
2018-12-15T06:05:08.067Z,0.60
2018-12-15T06:07:34.163Z,0.70
2018-12-15T06:10:00.293Z,0.60
2018-12-15T06:12:26.417Z,0.60
2018-12-15T06:14:52.548Z,0.60
2018-12-15T06:17:18.715Z,0.60
2018-12-15T06:19:44.843Z,0.60
2018-12-15T06:22:10.936Z,0.60
2018-12-15T06:24:37.097Z,0.60
2018-12-15T06:27:03.304Z,0.60
2018-12-15T06:29:29.480Z,0.60
2018-12-15T06:31:55.673Z,0.60
2018-12-15T06:34:28.696Z,0.50
2018-12-15T06:36:54.823Z,0.50
2018-12-15T06:39:21.077Z,0.50
2018-12-15T06:41:47.278Z,0.50
2018-12-15T06:44:13.440Z,0.50
2018-12-15T06:46:39.686Z,0.40
2018-12-15T06:49:05.986Z,0.40
2018-12-15T06:51:32.187Z,0.50
2018-12-15T06:53:58.358Z,0.50
2018-12-15T06:56:25.668Z,0.50
2018-12-15T06:58:51.998Z,0.50
2018-12-15T07:01:18.192Z,0.50
2018-12-15T07:03:44.400Z,0.50
2018-12-15T07:06:10.566Z,0.60
2018-12-15T07:08:43.776Z,0.60
2018-12-15T07:11:09.917Z,0.60
2018-12-15T07:13:36.128Z,0.60
2018-12-15T07:16:02.266Z,0.70
2018-12-15T07:18:28.412Z,0.70
2018-12-15T07:20:54.523Z,0.70
2018-12-15T07:23:20.723Z,0.60
2018-12-15T07:25:47.251Z,0.60
2018-12-15T07:28:13.492Z,0.50
2018-12-15T07:30:39.995Z,0.50
2018-12-15T07:33:06.118Z,0.50
2018-12-15T07:35:32.290Z,0.60
2018-12-15T07:37:58.435Z,0.60
2018-12-15T07:40:24.617Z,0.60
2018-12-15T07:42:50.785Z,0.60
2018-12-15T07:45:17.002Z,0.60
2018-12-15T07:47:43.097Z,0.60
2018-12-15T07:50:09.343Z,0.70
2018-12-15T07:52:35.579Z,0.70
2018-12-15T07:55:01.929Z,0.70
2018-12-15T07:57:28.069Z,0.70
2018-12-15T07:59:54.388Z,0.60
2018-12-15T08:02:20.593Z,0.70
2018-12-15T08:04:46.775Z,0.60
2018-12-15T08:07:13.257Z,0.70
2018-12-15T08:09:39.471Z,0.70
2018-12-15T08:12:11.642Z,0.70
2018-12-15T08:14:37.896Z,0.60
2018-12-15T08:17:04.145Z,0.70
2018-12-15T08:19:30.346Z,0.70
2018-12-15T08:21:56.619Z,0.70
2018-12-15T08:24:22.857Z,0.70
2018-12-15T08:26:49.185Z,0.80
2018-12-15T08:29:15.331Z,0.80
2018-12-15T08:31:41.482Z,0.70
2018-12-15T08:34:07.606Z,0.80
2018-12-15T08:36:33.814Z,0.80
2018-12-15T08:38:59.975Z,0.90
2018-12-15T08:41:26.173Z,0.80
2018-12-15T08:43:52.419Z,0.80
2018-12-15T08:46:18.623Z,0.80
2018-12-15T08:48:44.922Z,0.70
2018-12-15T08:51:11.636Z,0.80
2018-12-15T08:53:37.823Z,0.80
2018-12-15T08:56:04.158Z,0.80
2018-12-15T08:58:30.290Z,0.80
2018-12-15T09:00:56.439Z,0.90
2018-12-15T09:03:23.101Z,0.90
2018-12-15T09:05:49.218Z,0.80
2018-12-15T09:08:15.391Z,0.90
2018-12-15T09:10:41.513Z,0.90
2018-12-15T09:13:07.689Z,0.90
2018-12-15T09:15:33.773Z,0.80
2018-12-15T09:17:59.894Z,0.90
2018-12-15T09:20:26.273Z,0.90
2018-12-15T09:22:52.393Z,0.90
2018-12-15T09:25:18.692Z,0.90
2018-12-15T09:27:44.850Z,0.90
2018-12-15T09:30:11.119Z,0.70
2018-12-15T09:32:37.285Z,0.70
2018-12-15T09:35:03.801Z,0.70
2018-12-15T09:37:29.924Z,0.80
2018-12-15T09:39:56.203Z,0.80
2018-12-15T09:42:22.508Z,0.90
2018-12-15T09:44:48.741Z,0.90
2018-12-15T09:47:15.033Z,0.70
2018-12-15T09:49:41.193Z,0.80
2018-12-15T09:52:07.402Z,0.80
2018-12-15T09:54:33.590Z,0.90
2018-12-15T09:56:59.737Z,0.90
2018-12-15T09:59:25.971Z,0.90
2018-12-15T10:01:59.198Z,0.80
2018-12-15T10:04:25.391Z,0.80
2018-12-15T10:06:52.032Z,0.90
2018-12-15T10:09:18.237Z,0.80
2018-12-15T10:11:44.391Z,0.80
2018-12-15T10:14:10.523Z,0.90
2018-12-15T10:16:36.861Z,0.90
2018-12-15T10:19:03.179Z,0.80
2018-12-15T10:21:29.397Z,0.90
2018-12-15T10:23:55.585Z,0.80
2018-12-15T10:26:21.809Z,1.00
2018-12-15T10:28:47.980Z,0.90
2018-12-15T10:31:20.178Z,0.90
2018-12-15T10:33:46.393Z,0.90
2018-12-15T10:36:12.728Z,0.90
2018-12-15T10:38:38.884Z,1.00
2018-12-15T10:41:05.107Z,1.00
2018-12-15T10:43:31.456Z,1.00
2018-12-15T10:45:57.646Z,1.00
2018-12-15T10:48:23.848Z,1.00
2018-12-15T10:50:49.989Z,1.00
2018-12-15T10:53:23.062Z,1.00
2018-12-15T10:55:49.219Z,1.10
2018-12-15T10:58:15.412Z,1.00
2018-12-15T11:00:59.474Z,1.00
2018-12-15T11:03:25.670Z,0.70
2018-12-15T11:05:51.820Z,0.60
2018-12-15T11:08:18.124Z,0.60
2018-12-15T11:10:44.315Z,0.70
2018-12-15T11:13:10.624Z,0.60
2018-12-15T11:15:36.773Z,0.70
2018-12-15T11:18:03.058Z,0.70
2018-12-15T11:20:29.219Z,0.80
2018-12-15T11:22:55.367Z,0.90
2018-12-15T11:25:21.676Z,0.90
2018-12-15T11:27:48.510Z,0.90
2018-12-15T11:30:14.856Z,0.90
2018-12-15T11:32:40.987Z,0.80
2018-12-15T11:35:08.116Z,0.90
2018-12-15T11:37:34.329Z,0.90
2018-12-15T11:40:00.508Z,0.80
2018-12-15T11:42:26.617Z,0.70
2018-12-15T11:44:52.791Z,0.80
2018-12-15T11:47:19.017Z,0.90
2018-12-15T11:49:45.163Z,1.00
2018-12-15T11:52:11.347Z,1.00
2018-12-15T11:54:37.534Z,1.00
2018-12-15T11:57:03.838Z,0.80
2018-12-15T11:59:37.148Z,0.90
2018-12-15T12:02:03.353Z,0.90
2018-12-15T12:04:29.549Z,0.90
2018-12-15T12:06:55.827Z,0.70
2018-12-15T12:09:21.949Z,0.70
2018-12-15T12:11:48.138Z,0.80
2018-12-15T12:14:14.344Z,0.90
2018-12-15T12:16:40.537Z,0.90
2018-12-15T12:19:06.651Z,0.80
2018-12-15T12:21:32.820Z,0.80
2018-12-15T12:23:58.999Z,0.90
2018-12-15T12:26:25.168Z,0.90
2018-12-15T12:28:51.340Z,1.00
2018-12-15T12:31:17.533Z,1.10
2018-12-15T12:33:43.817Z,1.00
2018-12-15T12:36:09.972Z,1.10
2018-12-15T12:38:36.117Z,1.00
2018-12-15T12:41:02.306Z,1.10
2018-12-15T12:43:28.481Z,1.00
2018-12-15T12:45:54.657Z,1.00
2018-12-15T12:48:20.874Z,1.10
2018-12-15T12:50:47.029Z,1.00
2018-12-15T12:53:13.240Z,1.10
2018-12-15T12:55:40.278Z,1.00
2018-12-15T12:58:07.062Z,0.90
2018-12-15T13:00:33.347Z,0.70
2018-12-15T13:02:59.504Z,0.60
2018-12-15T13:05:25.691Z,0.50
2018-12-15T13:07:51.950Z,0.50
2018-12-15T13:10:18.124Z,0.80
2018-12-15T13:12:44.224Z,0.90
2018-12-15T13:15:10.404Z,1.30
2018-12-15T13:17:36.618Z,1.40
2018-12-15T13:20:04.242Z,1.40
2018-12-15T13:22:30.434Z,1.20
2018-12-15T13:24:56.615Z,1.20
2018-12-15T13:27:22.745Z,1.40
2018-12-15T13:29:48.965Z,1.20
2018-12-15T13:32:15.074Z,1.10
2018-12-15T13:34:41.413Z,1.10
2018-12-15T13:37:07.546Z,0.90
2018-12-15T13:39:33.739Z,1.00
2018-12-15T13:41:59.956Z,1.00
2018-12-15T13:44:26.136Z,1.00
2018-12-15T13:46:52.282Z,0.90
2018-12-15T13:49:18.513Z,0.90
2018-12-15T13:51:44.680Z,0.90
2018-12-15T13:54:10.831Z,0.90
2018-12-15T13:56:37.023Z,0.90
2018-12-15T13:59:03.323Z,0.90
2018-12-15T14:01:29.549Z,0.90
2018-12-15T14:03:55.713Z,0.90
2018-12-15T14:06:28.799Z,0.90
2018-12-15T14:08:54.966Z,1.00
2018-12-15T14:11:21.181Z,1.00
2018-12-15T14:13:47.385Z,0.80
2018-12-15T14:16:13.567Z,0.70
2018-12-15T14:18:39.767Z,0.70
2018-12-15T14:21:05.971Z,0.70
2018-12-15T14:23:32.095Z,0.80
2018-12-15T14:25:58.255Z,0.90
2018-12-15T14:28:24.410Z,0.80
2018-12-15T14:30:50.539Z,0.80
2018-12-15T14:33:16.720Z,0.70
2018-12-15T14:35:42.872Z,0.60
2018-12-15T14:38:09.080Z,0.60
2018-12-15T14:40:35.303Z,0.50
2018-12-15T14:43:01.436Z,0.50
2018-12-15T14:45:27.586Z,0.40
2018-12-15T14:47:53.742Z,0.40
2018-12-15T14:50:23.372Z,0.50
2018-12-15T14:52:48.026Z,0.50
2018-12-15T14:55:14.390Z,0.60
2018-12-15T14:57:40.576Z,0.60
2018-12-15T15:00:07.959Z,0.70
2018-12-15T15:02:34.249Z,0.70
2018-12-15T15:05:00.484Z,0.80
2018-12-15T15:07:26.624Z,0.70
2018-12-15T15:09:52.944Z,0.70
2018-12-15T15:12:19.970Z,0.70
2018-12-15T15:14:46.202Z,0.80
2018-12-15T15:17:12.336Z,0.80
2018-12-15T15:19:38.452Z,0.80
2018-12-15T15:22:04.803Z,0.80
2018-12-15T15:24:30.936Z,0.70
2018-12-15T15:26:57.098Z,0.80
2018-12-15T15:29:23.239Z,0.80
2018-12-15T15:31:49.396Z,0.70
2018-12-15T15:34:15.535Z,0.70
2018-12-15T15:36:41.686Z,0.60
2018-12-15T15:39:07.900Z,0.60
2018-12-15T15:41:34.117Z,0.60
2018-12-15T15:44:00.849Z,0.60
2018-12-15T15:46:27.067Z,0.60
2018-12-15T15:48:53.255Z,0.50
2018-12-15T15:51:19.462Z,0.60
2018-12-15T15:53:45.658Z,0.40
2018-12-15T15:56:11.847Z,0.30
2018-12-15T15:58:38.034Z,0.30
2018-12-15T16:01:04.266Z,0.40
2018-12-15T16:03:30.506Z,0.40
2018-12-15T16:05:56.655Z,0.40
2018-12-15T16:08:22.959Z,0.40
2018-12-15T16:10:49.150Z,0.40
2018-12-15T16:13:15.388Z,0.40
2018-12-15T16:15:41.572Z,0.40
2018-12-15T16:18:07.932Z,0.40
2018-12-15T16:20:34.161Z,0.40
2018-12-15T16:23:00.283Z,0.40
2018-12-15T16:25:26.491Z,0.30
2018-12-15T16:27:52.737Z,0.40
2018-12-15T16:30:18.845Z,0.40
2018-12-15T16:32:45.154Z,0.40
2018-12-15T16:35:11.514Z,0.50
2018-12-15T16:37:37.858Z,0.40
2018-12-15T16:40:05.525Z,0.40
2018-12-15T16:42:31.730Z,0.40
2018-12-15T16:44:57.977Z,0.40
2018-12-15T16:47:24.178Z,0.40
2018-12-15T16:49:50.386Z,0.30
2018-12-15T16:52:17.125Z,0.30
2018-12-15T16:54:43.629Z,0.20
2018-12-15T16:57:09.937Z,0.10
2018-12-15T16:59:36.236Z,0.20
2018-12-15T17:02:02.608Z,0.20
2018-12-15T17:04:28.734Z,0.30
2018-12-15T17:06:55.032Z,0.30
2018-12-15T17:09:21.496Z,0.20
2018-12-15T17:11:47.620Z,0.20
2018-12-15T17:14:14.024Z,0.20
2018-12-15T17:16:40.207Z,0.30
2018-12-15T17:19:06.513Z,0.20
2018-12-15T17:21:33.023Z,0.20
2018-12-15T17:23:59.271Z,0.20
2018-12-15T17:26:25.504Z,0.30
2018-12-15T17:28:51.667Z,0.20
2018-12-15T17:31:17.818Z,0.30
2018-12-15T17:33:44.105Z,0.10
2018-12-15T17:36:10.339Z,0.00
2018-12-15T17:38:36.477Z,0.00
2018-12-15T17:41:02.768Z,0.00
2018-12-15T17:43:28.891Z,0.10
2018-12-15T17:45:55.049Z,0.20
2018-12-15T17:48:21.173Z,0.10
2018-12-15T17:50:47.324Z,0.10
2018-12-15T17:53:13.541Z,0.10
2018-12-15T17:55:40.141Z,0.20
2018-12-15T17:58:06.377Z,0.10
2018-12-15T18:00:32.732Z,0.10
2018-12-15T18:02:58.935Z,0.20
2018-12-15T18:05:25.559Z,0.10
2018-12-15T18:07:51.777Z,0.10
2018-12-15T18:10:18.025Z,0.10
2018-12-15T18:12:44.378Z,0.30
2018-12-15T18:15:11.161Z,0.30
2018-12-15T18:17:37.790Z,0.10
2018-12-15T18:20:05.445Z,0.10
2018-12-15T18:22:32.037Z,0.20
2018-12-15T18:24:58.227Z,0.10
2018-12-15T18:27:24.777Z,0.20
2018-12-15T18:29:50.964Z,0.10
2018-12-15T18:32:17.217Z,0.10
2018-12-15T18:34:43.385Z,0.00
2018-12-15T18:37:09.810Z,0.00
2018-12-15T18:39:36.031Z,-0.10
2018-12-15T18:42:02.261Z,0.00
2018-12-15T18:44:28.504Z,0.00
2018-12-15T18:47:01.496Z,-0.10
2018-12-15T18:49:27.717Z,0.00
2018-12-15T18:51:53.924Z,0.00
2018-12-15T18:54:27.005Z,-0.10
2018-12-15T18:56:53.321Z,-0.10
2018-12-15T18:59:19.886Z,-0.20
2018-12-15T19:01:46.104Z,-0.20
2018-12-15T19:04:12.370Z,-0.10
2018-12-15T19:06:38.592Z,0.00
2018-12-15T19:09:05.411Z,0.00
2018-12-15T19:11:31.577Z,0.00
2018-12-15T19:13:57.752Z,0.00
2018-12-15T19:16:23.874Z,0.10
2018-12-15T19:18:50.010Z,0.00
2018-12-15T19:21:16.158Z,0.00
2018-12-15T19:23:43.620Z,0.00
2018-12-15T19:26:09.812Z,-0.10
2018-12-15T19:28:35.968Z,0.10
2018-12-15T19:31:02.173Z,0.00
2018-12-15T19:33:28.289Z,0.00
2018-12-15T19:35:54.523Z,-0.10
2018-12-15T19:38:20.664Z,-0.20
2018-12-15T19:40:46.783Z,-0.10
2018-12-15T19:43:13.006Z,-0.10
2018-12-15T19:45:39.351Z,-0.10
2018-12-15T19:48:05.483Z,-0.10
2018-12-15T19:50:31.720Z,-0.10
2018-12-15T19:52:57.893Z,0.00
2018-12-15T19:55:24.104Z,-0.10
2018-12-15T19:57:50.291Z,-0.10
2018-12-15T20:00:16.503Z,-0.10
2018-12-15T20:02:42.667Z,-0.20
2018-12-15T20:05:08.962Z,-0.10
2018-12-15T20:07:35.173Z,-0.20
2018-12-15T20:10:01.422Z,-0.10
2018-12-15T20:12:35.098Z,-0.10
2018-12-15T20:15:01.437Z,-0.10
2018-12-15T20:17:27.587Z,-0.20
2018-12-15T20:19:53.771Z,-0.20
2018-12-15T20:22:19.956Z,-0.20
2018-12-15T20:24:46.168Z,-0.10
2018-12-15T20:27:12.467Z,-0.10
2018-12-15T20:29:38.683Z,-0.10
2018-12-15T20:32:04.842Z,-0.30
2018-12-15T20:34:31.033Z,-0.20
2018-12-15T20:36:57.163Z,-0.20
2018-12-15T20:39:23.401Z,-0.10
2018-12-15T20:41:49.653Z,-0.10
2018-12-15T20:44:15.988Z,-0.10
2018-12-15T20:46:42.510Z,-0.20
2018-12-15T20:49:08.784Z,-0.30
2018-12-15T20:51:34.958Z,-0.30
2018-12-15T20:54:01.140Z,-0.30
2018-12-15T20:56:27.542Z,-0.20
2018-12-15T20:58:53.740Z,-0.20
2018-12-15T21:01:20.089Z,-0.20
2018-12-15T21:03:46.301Z,-0.20
2018-12-15T21:06:12.515Z,-0.20
2018-12-15T21:08:38.699Z,-0.10
2018-12-15T21:11:04.922Z,-0.10
2018-12-15T21:13:31.035Z,-0.30
2018-12-15T21:15:57.377Z,-0.20
2018-12-15T21:18:23.737Z,-0.10
2018-12-15T21:20:49.863Z,-0.10
2018-12-15T21:23:16.090Z,-0.10
2018-12-15T21:25:42.321Z,0.00
2018-12-15T21:28:08.485Z,-0.10
2018-12-15T21:30:34.656Z,-0.20
2018-12-15T21:33:00.979Z,-0.20
2018-12-15T21:35:27.227Z,-0.20
2018-12-15T21:37:53.555Z,-0.20
2018-12-15T21:40:19.895Z,-0.30
2018-12-15T21:42:46.089Z,-0.40
2018-12-15T21:45:12.283Z,-0.30
2018-12-15T21:47:38.431Z,-0.20
2018-12-15T21:50:04.859Z,-0.30
2018-12-15T21:52:31.071Z,-0.20
2018-12-15T21:54:57.225Z,-0.30
2018-12-15T21:57:23.499Z,-0.30
2018-12-15T21:59:49.661Z,-0.20
2018-12-15T22:02:15.871Z,-0.20
2018-12-15T22:04:42.023Z,-0.10
2018-12-15T22:07:08.249Z,-0.10
2018-12-15T22:09:41.326Z,-0.10
2018-12-15T22:12:07.487Z,-0.20
2018-12-15T22:14:33.611Z,-0.20
2018-12-15T22:16:59.750Z,-0.30
2018-12-15T22:19:25.973Z,-0.30
2018-12-15T22:21:52.165Z,-0.30
2018-12-15T22:24:18.468Z,-0.20
2018-12-15T22:26:44.653Z,-0.20
2018-12-15T22:29:10.932Z,-0.20
2018-12-15T22:31:37.172Z,-0.30
2018-12-15T22:34:03.323Z,-0.20
2018-12-15T22:36:29.547Z,-0.10
2018-12-15T22:38:55.784Z,-0.30
2018-12-15T22:41:21.893Z,-0.30
2018-12-15T22:43:48.073Z,-0.30
2018-12-15T22:46:14.285Z,-0.30
2018-12-15T22:48:40.498Z,-0.30
2018-12-15T22:51:06.640Z,-0.30
2018-12-15T22:53:32.853Z,-0.30
2018-12-15T22:55:59.076Z,-0.40
2018-12-15T22:58:25.360Z,-0.50
2018-12-15T23:00:58.277Z,-0.50
2018-12-15T23:03:24.466Z,-0.60
2018-12-15T23:05:50.640Z,-0.70
2018-12-15T23:08:16.861Z,-0.70
2018-12-15T23:10:43.034Z,-0.80
2018-12-15T23:13:09.288Z,-0.80
2018-12-15T23:15:42.294Z,-0.70
2018-12-15T23:18:08.447Z,-0.90
2018-12-15T23:20:34.650Z,-0.90
2018-12-15T23:23:00.897Z,-0.90
2018-12-15T23:25:27.097Z,-1.00
2018-12-15T23:27:53.280Z,-1.00
2018-12-15T23:30:19.660Z,-1.00
2018-12-15T23:32:46.046Z,-1.00
2018-12-15T23:35:12.236Z,-0.90
2018-12-15T23:37:38.409Z,-0.90
2018-12-15T23:40:05.882Z,-0.90
2018-12-15T23:42:32.082Z,-1.00
2018-12-15T23:44:58.365Z,-1.00
2018-12-15T23:47:31.427Z,-1.00
2018-12-15T23:49:58.180Z,-1.10
2018-12-15T23:52:24.347Z,-1.20
2018-12-15T23:54:50.539Z,-1.20
2018-12-15T23:57:16.649Z,-1.20
2018-12-15T23:59:43.031Z,-1.30
